createdAt,value
2022-12-29T00:01:43.597Z,61.85
2022-12-29T00:04:14.727Z,61.96
2022-12-29T00:06:42.037Z,61.31
2022-12-29T00:09:08.707Z,61.50
2022-12-29T00:11:35.515Z,61.77
2022-12-29T00:14:02.158Z,61.73
2022-12-29T00:16:28.902Z,62.63
2022-12-29T00:18:55.664Z,62.61
2022-12-29T00:21:22.284Z,61.57
2022-12-29T00:23:48.956Z,62.59
2022-12-29T00:26:15.585Z,62.71
2022-12-29T00:28:42.243Z,63.08
2022-12-29T00:31:08.979Z,64.22
2022-12-29T00:33:35.688Z,64.21
2022-12-29T00:36:02.393Z,64.18
2022-12-29T00:38:29.052Z,63.94
2022-12-29T00:40:55.705Z,63.58
2022-12-29T00:43:22.340Z,63.09
2022-12-29T00:45:49.015Z,62.81
2022-12-29T00:48:15.735Z,62.99
2022-12-29T00:50:42.364Z,63.37
2022-12-29T00:53:09.022Z,63.34
2022-12-29T00:55:35.762Z,63.29
2022-12-29T00:58:02.429Z,63.44
2022-12-29T01:00:29.199Z,63.66
2022-12-29T01:02:56.029Z,63.10
2022-12-29T01:05:22.784Z,63.35
2022-12-29T01:07:49.470Z,62.63
2022-12-29T01:10:16.159Z,62.30
2022-12-29T01:12:42.847Z,62.69
2022-12-29T01:15:09.576Z,62.33
2022-12-29T01:17:36.370Z,62.60
2022-12-29T01:20:03.098Z,62.75
2022-12-29T01:22:29.764Z,62.46
2022-12-29T01:24:56.487Z,62.66
2022-12-29T01:27:23.117Z,61.87
2022-12-29T01:29:49.806Z,62.89
2022-12-29T01:32:16.453Z,62.49
2022-12-29T01:34:44.821Z,62.01
2022-12-29T01:37:11.493Z,61.71
2022-12-29T01:39:38.160Z,62.83
2022-12-29T01:42:04.818Z,62.52
2022-12-29T01:44:31.517Z,62.76
2022-12-29T01:46:58.189Z,62.19
2022-12-29T01:49:24.898Z,62.65
2022-12-29T01:51:51.577Z,62.78
2022-12-29T01:54:18.326Z,62.73
2022-12-29T01:56:44.952Z,62.18
2022-12-29T01:59:11.681Z,62.24
2022-12-29T02:01:38.493Z,62.24
2022-12-29T02:04:05.229Z,62.36
2022-12-29T02:06:31.884Z,62.46
2022-12-29T02:08:58.759Z,62.76
2022-12-29T02:11:25.392Z,62.75
2022-12-29T02:13:52.051Z,62.84
2022-12-29T02:16:18.760Z,62.83
2022-12-29T02:18:45.483Z,62.44
2022-12-29T02:21:12.147Z,61.94
2022-12-29T02:23:38.802Z,63.29
2022-12-29T02:26:05.476Z,62.99
2022-12-29T02:28:32.096Z,63.08
2022-12-29T02:30:58.739Z,62.71
2022-12-29T02:33:25.408Z,62.64
2022-12-29T02:35:52.075Z,62.33
2022-12-29T02:38:18.742Z,63.11
2022-12-29T02:40:45.477Z,62.75
2022-12-29T02:43:12.128Z,62.99
2022-12-29T02:45:38.793Z,62.67
2022-12-29T02:48:05.473Z,63.66
2022-12-29T02:50:32.089Z,63.22
2022-12-29T02:52:58.737Z,63.21
2022-12-29T02:55:25.437Z,62.63
2022-12-29T02:57:52.115Z,63.31
2022-12-29T03:00:18.776Z,64.57
2022-12-29T03:02:45.517Z,66.89
2022-12-29T03:05:12.304Z,68.42
2022-12-29T03:07:38.981Z,67.60
2022-12-29T03:10:05.682Z,67.19
2022-12-29T03:12:32.337Z,67.10
2022-12-29T03:14:59.069Z,65.90
2022-12-29T03:17:25.733Z,66.97
2022-12-29T03:19:52.407Z,66.12
2022-12-29T03:22:19.156Z,66.09
2022-12-29T03:24:45.799Z,65.18
2022-12-29T03:27:12.466Z,64.74
2022-12-29T03:29:39.382Z,65.86
2022-12-29T03:32:06.034Z,66.59
2022-12-29T03:34:32.726Z,66.60
2022-12-29T03:36:59.408Z,66.03
2022-12-29T03:39:26.020Z,65.46
2022-12-29T03:41:52.709Z,65.50
2022-12-29T03:44:19.423Z,65.16
2022-12-29T03:46:46.091Z,65.13
2022-12-29T03:49:12.844Z,65.14
2022-12-29T03:51:39.545Z,65.45
2022-12-29T03:54:06.224Z,66.94
2022-12-29T03:56:32.925Z,66.50
2022-12-29T03:58:59.658Z,66.44
2022-12-29T04:01:26.378Z,65.98
2022-12-29T04:03:53.160Z,65.83
2022-12-29T04:06:19.879Z,65.44
2022-12-29T04:08:46.520Z,66.29
2022-12-29T04:11:13.232Z,66.99
2022-12-29T04:13:41.139Z,67.08
2022-12-29T04:16:07.865Z,67.91
2022-12-29T04:18:34.650Z,67.49
2022-12-29T04:21:01.380Z,67.35
2022-12-29T04:23:28.093Z,67.15
2022-12-29T04:25:54.746Z,66.29
2022-12-29T04:28:21.394Z,65.13
2022-12-29T04:30:48.340Z,65.57
2022-12-29T04:33:15.115Z,65.79
2022-12-29T04:35:41.926Z,65.22
2022-12-29T04:38:08.612Z,65.59
2022-12-29T04:40:35.328Z,65.50
2022-12-29T04:43:02.029Z,64.35
2022-12-29T04:45:28.705Z,64.36
2022-12-29T04:47:55.362Z,64.95
2022-12-29T04:50:22.070Z,63.90
2022-12-29T04:52:48.723Z,64.29
2022-12-29T04:55:15.400Z,64.44
2022-12-29T04:57:42.075Z,64.12
2022-12-29T05:00:08.736Z,63.85
2022-12-29T05:02:35.571Z,64.79
2022-12-29T05:05:02.397Z,65.40
2022-12-29T05:07:29.173Z,65.67
2022-12-29T05:09:55.909Z,65.24
2022-12-29T05:12:22.664Z,65.06
2022-12-29T05:14:49.317Z,64.63
2022-12-29T05:17:16.034Z,65.23
2022-12-29T05:19:42.831Z,66.91
2022-12-29T05:22:09.537Z,66.65
2022-12-29T05:24:36.264Z,66.79
2022-12-29T05:27:02.890Z,67.20
2022-12-29T05:29:29.531Z,67.26
2022-12-29T05:31:56.234Z,66.89
2022-12-29T05:34:22.994Z,66.48
2022-12-29T05:36:49.700Z,66.40
2022-12-29T05:39:16.332Z,66.15
2022-12-29T05:41:42.953Z,66.49
2022-12-29T05:44:09.612Z,66.79
2022-12-29T05:46:36.326Z,67.04
2022-12-29T05:49:03.072Z,67.40
2022-12-29T05:51:29.752Z,66.80
2022-12-29T05:53:56.425Z,67.08
2022-12-29T05:56:23.158Z,67.07
2022-12-29T05:58:49.869Z,66.93
2022-12-29T06:01:16.520Z,66.92
2022-12-29T06:03:48.200Z,67.21
2022-12-29T06:06:15.299Z,67.04
2022-12-29T06:08:41.992Z,66.17
2022-12-29T06:11:08.635Z,65.48
2022-12-29T06:13:35.298Z,66.13
2022-12-29T06:16:02.047Z,67.33
2022-12-29T06:18:28.794Z,66.89
2022-12-29T06:20:55.478Z,65.73
2022-12-29T06:23:22.148Z,66.63
2022-12-29T06:25:48.859Z,66.51
2022-12-29T06:28:15.567Z,65.87
2022-12-29T06:30:42.329Z,65.71
2022-12-29T06:33:08.984Z,65.56
2022-12-29T06:35:35.617Z,65.54
2022-12-29T06:38:02.241Z,65.72
2022-12-29T06:40:28.958Z,65.47
2022-12-29T06:42:55.759Z,64.68
2022-12-29T06:45:22.391Z,65.00
2022-12-29T06:47:49.065Z,64.55
2022-12-29T06:50:15.737Z,64.25
2022-12-29T06:52:42.425Z,63.50
2022-12-29T06:55:09.094Z,63.85
2022-12-29T06:57:35.725Z,63.84
2022-12-29T07:00:02.441Z,65.56
2022-12-29T07:02:29.180Z,65.17
2022-12-29T07:04:55.991Z,67.23
2022-12-29T07:07:22.691Z,65.73
2022-12-29T07:09:49.357Z,66.32
2022-12-29T07:12:16.019Z,65.21
2022-12-29T07:14:43.679Z,65.24
2022-12-29T07:17:10.548Z,65.64
2022-12-29T07:19:37.311Z,66.01
2022-12-29T07:22:03.983Z,64.91
2022-12-29T07:24:30.667Z,65.18
2022-12-29T07:26:57.296Z,65.62
2022-12-29T07:29:24.055Z,65.45
2022-12-29T07:31:50.770Z,65.18
2022-12-29T07:34:17.597Z,65.26
2022-12-29T07:36:44.245Z,65.65
2022-12-29T07:39:11.094Z,65.04
2022-12-29T07:41:37.752Z,65.31
2022-12-29T07:44:04.369Z,64.69
2022-12-29T07:46:56.461Z,64.92
2022-12-29T07:49:17.732Z,63.58
2022-12-29T07:51:44.404Z,63.86
2022-12-29T07:54:11.042Z,62.61
2022-12-29T07:56:37.665Z,61.90
2022-12-29T07:59:04.661Z,61.77
2022-12-29T08:01:31.333Z,61.10
2022-12-29T08:03:58.155Z,60.94
2022-12-29T08:06:24.888Z,61.29
2022-12-29T08:08:51.572Z,60.89
2022-12-29T08:11:18.278Z,60.51
2022-12-29T08:13:44.960Z,59.69
2022-12-29T08:16:11.735Z,58.86
2022-12-29T08:18:38.471Z,59.20
2022-12-29T08:21:05.116Z,59.44
2022-12-29T08:23:31.769Z,58.41
2022-12-29T08:25:58.454Z,58.91
2022-12-29T08:28:25.120Z,58.31
2022-12-29T08:30:51.859Z,58.95
2022-12-29T08:33:18.545Z,59.21
2022-12-29T08:35:45.215Z,58.69
2022-12-29T08:38:11.870Z,57.84
2022-12-29T08:40:38.567Z,57.61
2022-12-29T08:43:05.193Z,56.95
2022-12-29T08:45:31.884Z,55.87
2022-12-29T08:47:58.548Z,55.95
2022-12-29T08:50:25.355Z,55.89
2022-12-29T08:52:52.042Z,56.65
2022-12-29T08:55:18.738Z,56.12
2022-12-29T08:57:45.425Z,56.48
2022-12-29T09:00:12.124Z,56.21
2022-12-29T09:02:42.106Z,55.68
2022-12-29T09:05:08.936Z,55.52
2022-12-29T09:07:35.653Z,55.24
2022-12-29T09:10:02.367Z,54.33
2022-12-29T09:12:34.490Z,54.78
2022-12-29T09:15:03.023Z,53.81
2022-12-29T09:17:29.737Z,53.67
2022-12-29T09:19:56.347Z,52.87
2022-12-29T09:22:23.034Z,52.64
2022-12-29T09:24:50.211Z,52.19
2022-12-29T09:27:16.919Z,52.55
2022-12-29T09:29:43.617Z,51.93
2022-12-29T09:32:13.877Z,51.26
2022-12-29T09:34:43.859Z,52.38
2022-12-29T09:37:10.522Z,52.17
2022-12-29T09:39:37.244Z,52.22
2022-12-29T09:42:03.892Z,52.48
2022-12-29T09:44:30.602Z,51.10
2022-12-29T09:46:57.442Z,51.44
2022-12-29T09:49:24.185Z,51.33
2022-12-29T09:51:50.888Z,51.00
2022-12-29T09:54:17.560Z,50.68
2022-12-29T09:56:44.277Z,49.86
2022-12-29T09:59:10.984Z,50.57
2022-12-29T10:01:37.722Z,50.19
2022-12-29T10:04:04.489Z,49.86
2022-12-29T10:06:31.181Z,49.84
2022-12-29T10:08:57.858Z,48.93
2022-12-29T10:11:24.592Z,48.95
2022-12-29T10:13:53.185Z,48.79
2022-12-29T10:16:19.923Z,48.04
2022-12-29T10:18:46.630Z,48.28
2022-12-29T10:21:13.316Z,47.91
2022-12-29T10:23:39.934Z,47.31
2022-12-29T10:26:06.661Z,47.50
2022-12-29T10:28:33.396Z,46.75
2022-12-29T10:31:03.593Z,46.70
2022-12-29T10:33:35.112Z,46.28
2022-12-29T10:36:01.929Z,46.26
2022-12-29T10:38:28.649Z,45.36
2022-12-29T10:40:55.320Z,45.34
2022-12-29T10:43:22.027Z,45.42
2022-12-29T10:45:48.717Z,45.02
2022-12-29T10:48:15.456Z,45.21
2022-12-29T10:50:42.086Z,45.44
2022-12-29T10:53:08.748Z,44.64
2022-12-29T10:55:35.391Z,44.80
2022-12-29T10:58:02.025Z,44.71
2022-12-29T11:00:28.940Z,44.55
2022-12-29T11:02:55.771Z,43.32
2022-12-29T11:05:22.582Z,43.79
2022-12-29T11:07:49.295Z,44.88
2022-12-29T11:10:16.097Z,44.47
2022-12-29T11:12:42.806Z,44.29
2022-12-29T11:15:09.471Z,43.98
2022-12-29T11:17:36.131Z,43.53
2022-12-29T11:20:02.800Z,41.81
2022-12-29T11:22:29.475Z,43.00
2022-12-29T11:24:56.163Z,41.77
2022-12-29T11:27:22.841Z,41.75
2022-12-29T11:29:49.477Z,42.02
2022-12-29T11:32:16.190Z,42.20
2022-12-29T11:34:42.931Z,42.05
2022-12-29T11:37:09.756Z,41.47
2022-12-29T11:39:36.415Z,40.89
2022-12-29T11:42:03.158Z,40.83
2022-12-29T11:44:29.837Z,40.38
2022-12-29T11:46:56.476Z,41.18
2022-12-29T11:49:23.205Z,40.99
2022-12-29T11:51:50.924Z,40.23
2022-12-29T11:54:17.617Z,39.30
2022-12-29T11:56:44.254Z,40.40
2022-12-29T11:59:10.910Z,40.03
2022-12-29T12:01:37.586Z,39.53
2022-12-29T12:04:04.494Z,40.38
2022-12-29T12:06:31.243Z,39.48
2022-12-29T12:08:57.963Z,38.70
2022-12-29T12:11:24.623Z,38.72
2022-12-29T12:13:51.349Z,39.14
2022-12-29T12:16:18.155Z,39.34
2022-12-29T12:18:44.885Z,39.29
2022-12-29T12:21:11.549Z,38.83
2022-12-29T12:23:38.237Z,38.30
2022-12-29T12:26:04.903Z,38.21
2022-12-29T12:28:36.454Z,38.34
2022-12-29T12:31:03.545Z,37.60
2022-12-29T12:33:30.344Z,36.99
2022-12-29T12:35:57.064Z,38.34
2022-12-29T12:38:23.704Z,37.34
2022-12-29T12:40:51.181Z,37.85
2022-12-29T12:43:17.872Z,37.42
2022-12-29T12:45:44.726Z,37.32
2022-12-29T12:48:11.347Z,38.08
2022-12-29T12:50:38.062Z,38.30
2022-12-29T12:53:04.715Z,37.50
2022-12-29T12:55:31.357Z,37.27
2022-12-29T12:57:58.019Z,37.70
2022-12-29T13:00:24.754Z,37.04
2022-12-29T13:02:51.564Z,37.25
2022-12-29T13:05:24.309Z,37.31
2022-12-29T13:07:53.028Z,37.65
2022-12-29T13:10:19.723Z,37.28
2022-12-29T13:12:46.493Z,38.23
2022-12-29T13:15:13.231Z,38.25
2022-12-29T13:17:39.880Z,37.97
2022-12-29T13:20:06.593Z,38.64
2022-12-29T13:22:33.275Z,38.77
2022-12-29T13:24:59.984Z,38.38
2022-12-29T13:27:28.741Z,37.90
2022-12-29T13:29:58.772Z,38.08
2022-12-29T13:32:25.672Z,38.07
2022-12-29T13:34:52.317Z,37.73
2022-12-29T13:37:19.009Z,37.61
2022-12-29T13:39:45.625Z,38.00
2022-12-29T13:42:12.316Z,37.58
2022-12-29T13:44:39.042Z,38.58
2022-12-29T13:47:05.725Z,38.65
2022-12-29T13:49:32.438Z,38.36
2022-12-29T13:51:59.126Z,38.40
2022-12-29T13:54:25.844Z,38.94
2022-12-29T13:56:52.558Z,38.91
2022-12-29T13:59:19.298Z,38.88
2022-12-29T14:01:46.158Z,39.35
2022-12-29T14:04:12.971Z,39.52
2022-12-29T14:06:39.646Z,38.39
2022-12-29T14:09:06.320Z,39.00
2022-12-29T14:11:33.005Z,39.13
2022-12-29T14:13:59.701Z,40.19
2022-12-29T14:16:26.372Z,40.03
2022-12-29T14:18:53.125Z,40.05
2022-12-29T14:21:19.772Z,40.41
2022-12-29T14:23:46.442Z,40.53
2022-12-29T14:26:13.077Z,40.90
2022-12-29T14:28:39.752Z,41.27
2022-12-29T14:31:06.486Z,41.91
2022-12-29T14:33:33.229Z,42.25
2022-12-29T14:35:59.949Z,42.25
2022-12-29T14:38:26.638Z,42.88
2022-12-29T14:40:53.314Z,42.43
2022-12-29T14:43:19.986Z,42.60
2022-12-29T14:45:46.668Z,42.60
2022-12-29T14:48:13.358Z,42.91
2022-12-29T14:50:40.025Z,43.12
2022-12-29T14:53:06.712Z,43.44
2022-12-29T14:55:33.344Z,43.53
2022-12-29T14:58:00.041Z,43.82
2022-12-29T15:00:26.687Z,43.91
2022-12-29T15:02:53.485Z,44.31
2022-12-29T15:05:20.172Z,45.56
2022-12-29T15:07:46.814Z,45.35
2022-12-29T15:10:13.480Z,45.67
2022-12-29T15:12:40.193Z,45.66
2022-12-29T15:17:51.120Z,45.72
2022-12-29T15:20:17.859Z,46.14
2022-12-29T15:22:44.587Z,46.61
2022-12-29T15:25:11.284Z,46.56
2022-12-29T15:27:37.964Z,46.22
2022-12-29T15:30:04.575Z,46.10
2022-12-29T15:32:31.240Z,46.51
2022-12-29T15:34:57.927Z,46.16
2022-12-29T15:37:24.604Z,46.68
2022-12-29T15:39:51.290Z,46.18
2022-12-29T15:42:18.015Z,46.58
2022-12-29T15:44:44.691Z,46.24
2022-12-29T15:47:11.391Z,47.04
2022-12-29T15:49:38.127Z,46.81
2022-12-29T15:52:04.851Z,47.38
2022-12-29T15:54:31.573Z,47.31
2022-12-29T15:56:58.297Z,49.12
2022-12-29T15:59:24.982Z,49.22
2022-12-29T16:01:51.773Z,49.54
2022-12-29T16:04:18.539Z,49.24
2022-12-29T16:06:45.232Z,49.72
2022-12-29T16:09:11.878Z,50.11
2022-12-29T16:11:38.533Z,49.77
2022-12-29T16:14:05.181Z,50.24
2022-12-29T16:16:31.890Z,50.35
2022-12-29T16:18:58.824Z,50.11
2022-12-29T16:21:25.504Z,50.69
2022-12-29T16:23:52.162Z,51.04
2022-12-29T16:26:18.867Z,51.02
2022-12-29T16:28:45.522Z,51.38
2022-12-29T16:31:12.316Z,50.77
2022-12-29T16:33:39.095Z,50.69
2022-12-29T16:36:05.817Z,50.49
2022-12-29T16:38:32.656Z,50.45
2022-12-29T16:40:59.342Z,50.45
2022-12-29T16:43:26.073Z,50.38
2022-12-29T16:45:52.745Z,50.58
2022-12-29T16:48:19.482Z,50.14
2022-12-29T16:50:46.145Z,50.88
2022-12-29T16:53:12.823Z,51.10
2022-12-29T16:55:39.496Z,51.28
2022-12-29T16:58:06.145Z,50.65
2022-12-29T17:00:32.785Z,50.75
2022-12-29T17:02:59.584Z,50.34
2022-12-29T17:05:26.364Z,50.52
2022-12-29T17:07:53.028Z,51.07
2022-12-29T17:10:19.736Z,50.99
2022-12-29T17:12:46.434Z,50.93
2022-12-29T17:15:13.093Z,50.88
2022-12-29T17:17:39.820Z,50.84
2022-12-29T17:20:06.468Z,50.56
2022-12-29T17:22:33.237Z,51.01
2022-12-29T17:24:59.930Z,51.37
2022-12-29T17:27:26.828Z,51.79
2022-12-29T17:29:53.535Z,52.02
2022-12-29T17:32:20.179Z,51.67
2022-12-29T17:34:46.831Z,52.20
2022-12-29T17:37:13.916Z,52.45
2022-12-29T17:39:40.671Z,53.15
2022-12-29T17:42:07.301Z,52.88
2022-12-29T17:44:34.020Z,52.86
2022-12-29T17:47:00.724Z,53.46
2022-12-29T17:49:27.382Z,53.52
2022-12-29T17:51:54.124Z,53.99
2022-12-29T17:54:20.781Z,54.32
2022-12-29T17:56:47.444Z,54.86
2022-12-29T17:59:14.208Z,55.53
2022-12-29T18:01:45.303Z,55.44
2022-12-29T18:04:12.335Z,56.05
2022-12-29T18:06:39.029Z,55.92
2022-12-29T18:09:05.681Z,55.67
2022-12-29T18:11:32.382Z,56.75
2022-12-29T18:13:59.040Z,55.95
2022-12-29T18:16:25.780Z,56.15
2022-12-29T18:18:52.542Z,57.49
2022-12-29T18:21:19.290Z,57.69
2022-12-29T18:23:46.171Z,58.74
2022-12-29T18:26:12.866Z,59.61
2022-12-29T18:28:39.521Z,59.01
2022-12-29T18:31:06.259Z,57.54
2022-12-29T18:33:32.961Z,57.65
2022-12-29T18:35:59.615Z,58.24
2022-12-29T18:38:26.335Z,58.46
2022-12-29T18:40:53.037Z,58.87
2022-12-29T18:43:19.714Z,59.73
2022-12-29T18:45:46.394Z,61.10
2022-12-29T18:48:13.044Z,60.08
2022-12-29T18:50:39.677Z,59.69
2022-12-29T18:53:06.386Z,59.95
2022-12-29T18:55:33.123Z,59.77
2022-12-29T18:57:59.827Z,58.16
2022-12-29T19:00:26.482Z,59.43
2022-12-29T19:02:53.176Z,59.45
2022-12-29T19:05:19.933Z,58.92
2022-12-29T19:07:46.632Z,59.52
2022-12-29T19:10:13.329Z,59.63
2022-12-29T19:12:40.014Z,58.22
2022-12-29T19:15:06.699Z,57.05
2022-12-29T19:17:33.416Z,56.99
2022-12-29T19:20:00.113Z,57.54
2022-12-29T19:22:26.873Z,56.37
2022-12-29T19:24:59.580Z,56.79
2022-12-29T19:27:26.706Z,57.11
2022-12-29T19:29:53.353Z,57.52
2022-12-29T19:32:19.999Z,57.75
2022-12-29T19:34:46.619Z,58.11
2022-12-29T19:37:13.308Z,57.91
2022-12-29T19:39:40.123Z,56.90
2022-12-29T19:42:06.837Z,56.98
2022-12-29T19:44:33.507Z,56.82
2022-12-29T19:47:00.245Z,57.04
2022-12-29T19:49:27.044Z,57.73
2022-12-29T19:51:53.731Z,57.78
2022-12-29T19:54:20.869Z,57.86
2022-12-29T19:56:47.567Z,56.76
2022-12-29T19:59:14.397Z,55.90
2022-12-29T20:01:41.392Z,56.43
2022-12-29T20:04:08.259Z,56.19
2022-12-29T20:06:35.111Z,57.30
2022-12-29T20:09:01.807Z,58.39
2022-12-29T20:11:28.591Z,57.61
2022-12-29T20:13:55.320Z,57.31
2022-12-29T20:16:22.056Z,57.03
2022-12-29T20:18:51.052Z,56.70
2022-12-29T20:21:17.823Z,58.35
2022-12-29T20:23:44.496Z,58.80
2022-12-29T20:26:11.282Z,58.56
2022-12-29T20:28:37.948Z,57.79
2022-12-29T20:31:04.672Z,57.56
2022-12-29T20:33:31.344Z,57.11
2022-12-29T20:35:58.034Z,57.08
2022-12-29T20:38:24.693Z,56.72
2022-12-29T20:40:51.426Z,56.26
2022-12-29T20:43:18.068Z,56.96
2022-12-29T20:45:44.812Z,57.19
2022-12-29T20:48:11.682Z,57.21
2022-12-29T20:50:38.449Z,58.15
2022-12-29T20:53:05.250Z,57.76
2022-12-29T20:55:31.900Z,57.79
2022-12-29T20:58:23.074Z,57.98
2022-12-29T21:00:45.249Z,57.10
2022-12-29T21:03:12.116Z,56.38
2022-12-29T21:05:38.945Z,57.79
2022-12-29T21:08:05.632Z,57.57
2022-12-29T21:10:32.299Z,57.01
2022-12-29T21:12:59.003Z,57.75
2022-12-29T21:15:25.734Z,57.72
2022-12-29T21:17:52.368Z,57.00
2022-12-29T21:20:19.001Z,56.81
2022-12-29T21:22:45.681Z,57.17
2022-12-29T21:25:12.382Z,59.02
2022-12-29T21:27:39.127Z,58.53
2022-12-29T21:30:05.903Z,58.47
2022-12-29T21:32:32.574Z,57.76
2022-12-29T21:34:59.222Z,57.48
2022-12-29T21:37:25.880Z,57.21
2022-12-29T21:39:52.523Z,56.13
2022-12-29T21:42:19.206Z,55.97
2022-12-29T21:44:45.969Z,55.98
2022-12-29T21:47:14.942Z,56.91
2022-12-29T21:49:41.586Z,57.29
2022-12-29T21:52:08.291Z,57.28
2022-12-29T21:54:35.007Z,57.75
2022-12-29T21:57:01.718Z,57.04
2022-12-29T21:59:28.360Z,56.75
2022-12-29T22:01:55.086Z,56.92
2022-12-29T22:04:21.820Z,56.96
2022-12-29T22:06:48.442Z,56.51
2022-12-29T22:09:15.158Z,56.18
2022-12-29T22:11:41.857Z,55.50
2022-12-29T22:14:08.536Z,54.80
2022-12-29T22:16:35.240Z,55.42
2022-12-29T22:19:01.922Z,55.08
2022-12-29T22:21:28.575Z,55.07
2022-12-29T22:23:55.279Z,56.07
2022-12-29T22:26:22.044Z,55.08
2022-12-29T22:28:48.873Z,55.49
2022-12-29T22:31:15.572Z,56.11
2022-12-29T22:33:42.259Z,55.74
2022-12-29T22:36:08.956Z,56.54
2022-12-29T22:38:35.598Z,59.00
2022-12-29T22:41:02.309Z,58.14
2022-12-29T22:43:28.944Z,57.85
2022-12-29T22:45:55.598Z,58.99
2022-12-29T22:48:22.333Z,57.89
2022-12-29T22:50:49.013Z,57.54
2022-12-29T22:53:15.720Z,56.73
2022-12-29T22:55:42.428Z,56.11
2022-12-29T22:58:09.143Z,57.32
2022-12-29T23:00:35.889Z,56.56
2022-12-29T23:03:02.737Z,57.48
2022-12-29T23:05:29.585Z,56.79
2022-12-29T23:07:56.261Z,57.46
2022-12-29T23:10:22.975Z,57.23
2022-12-29T23:12:49.720Z,56.34
2022-12-29T23:15:16.431Z,55.95
2022-12-29T23:17:43.108Z,56.62
2022-12-29T23:20:09.826Z,56.70
2022-12-29T23:22:36.514Z,56.66
2022-12-29T23:25:03.160Z,56.61
2022-12-29T23:27:29.784Z,57.07
2022-12-29T23:29:56.500Z,56.42
2022-12-29T23:32:23.181Z,56.78
2022-12-29T23:34:49.908Z,56.58
2022-12-29T23:37:16.595Z,56.47
2022-12-29T23:39:43.298Z,56.82
2022-12-29T23:42:09.947Z,57.87
2022-12-29T23:44:36.603Z,57.30
2022-12-29T23:47:03.382Z,57.01
2022-12-29T23:49:30.085Z,56.94
2022-12-29T23:51:56.791Z,57.18
2022-12-29T23:54:23.650Z,57.85
2022-12-29T23:56:50.333Z,58.61
2022-12-29T23:59:17.020Z,58.52
